sensor_id;sensor_type;location;lat;lon;timestamp;pressure;altitude;pressure_sealevel;temperature;humidity
75852;BME280;64500;52.632;20.656;2022-12-20T00:00:07;101078.70;;;-0.94;73.65
75852;BME280;64500;52.632;20.656;2022-12-20T00:02:58;101072.66;;;-0.93;73.66
75852;BME280;64500;52.632;20.656;2022-12-20T00:05:27;101070.21;;;-0.93;73.80
75852;BME280;64500;52.632;20.656;2022-12-20T00:08:00;101068.81;;;-0.93;73.86
75852;BME280;64500;52.632;20.656;2022-12-20T00:10:29;101068.34;;;-0.92;74.00
75852;BME280;64500;52.632;20.656;2022-12-20T00:12:59;101063.22;;;-0.89;74.00
75852;BME280;64500;52.632;20.656;2022-12-20T00:15:31;101061.67;;;-0.89;73.94
75852;BME280;64500;52.632;20.656;2022-12-20T00:18:04;101057.16;;;-0.89;74.25
75852;BME280;64500;52.632;20.656;2022-12-20T00:20:35;101050.82;;;-0.86;74.09
75852;BME280;64500;52.632;20.656;2022-12-20T00:23:05;101046.46;;;-0.82;74.09
75852;BME280;64500;52.632;20.656;2022-12-20T00:25:35;101046.58;;;-0.78;74.14
75852;BME280;64500;52.632;20.656;2022-12-20T00:28:04;101039.73;;;-0.76;74.22
75852;BME280;64500;52.632;20.656;2022-12-20T00:30:38;101040.31;;;-0.73;74.43
75852;BME280;64500;52.632;20.656;2022-12-20T00:33:07;101035.84;;;-0.72;74.40
75852;BME280;64500;52.632;20.656;2022-12-20T00:35:42;101039.20;;;-0.70;74.67
75852;BME280;64500;52.632;20.656;2022-12-20T00:38:10;101039.40;;;-0.69;74.62
75852;BME280;64500;52.632;20.656;2022-12-20T00:40:43;101037.70;;;-0.68;74.85
75852;BME280;64500;52.632;20.656;2022-12-20T00:43:13;101038.65;;;-0.65;74.73
75852;BME280;64500;52.632;20.656;2022-12-20T00:45:48;101039.77;;;-0.63;74.73
75852;BME280;64500;52.632;20.656;2022-12-20T00:48:18;101031.84;;;-0.61;74.83
75852;BME280;64500;52.632;20.656;2022-12-20T00:50:51;101028.54;;;-0.56;74.99
75852;BME280;64500;52.632;20.656;2022-12-20T00:53:23;101024.99;;;-0.52;74.95
75852;BME280;64500;52.632;20.656;2022-12-20T00:55:54;101017.83;;;-0.48;74.78
75852;BME280;64500;52.632;20.656;2022-12-20T00:58:27;101016.73;;;-0.45;74.94
75852;BME280;64500;52.632;20.656;2022-12-20T01:01:04;101012.55;;;-0.45;74.99
75852;BME280;64500;52.632;20.656;2022-12-20T01:03:32;101008.86;;;-0.46;74.85
75852;BME280;64500;52.632;20.656;2022-12-20T01:06:02;101011.32;;;-0.45;75.08
75852;BME280;64500;52.632;20.656;2022-12-20T01:08:33;101005.45;;;-0.44;75.01
75852;BME280;64500;52.632;20.656;2022-12-20T01:11:13;100999.09;;;-0.42;74.92
75852;BME280;64500;52.632;20.656;2022-12-20T01:13:46;100989.20;;;-0.42;74.99
75852;BME280;64500;52.632;20.656;2022-12-20T01:16:30;100990.98;;;-0.40;75.01
75852;BME280;64500;52.632;20.656;2022-12-20T01:19:03;100983.61;;;-0.37;75.13
75852;BME280;64500;52.632;20.656;2022-12-20T01:21:36;100977.96;;;-0.34;75.22
75852;BME280;64500;52.632;20.656;2022-12-20T01:24:08;100976.54;;;-0.30;75.08
75852;BME280;64500;52.632;20.656;2022-12-20T01:26:39;100967.71;;;-0.28;75.47
75852;BME280;64500;52.632;20.656;2022-12-20T01:29:14;100964.10;;;-0.27;75.21
75852;BME280;64500;52.632;20.656;2022-12-20T01:31:50;100961.53;;;-0.26;75.44
75852;BME280;64500;52.632;20.656;2022-12-20T01:34:25;100957.77;;;-0.24;75.36
75852;BME280;64500;52.632;20.656;2022-12-20T01:36:53;100948.59;;;-0.22;75.53
75852;BME280;64500;52.632;20.656;2022-12-20T01:39:23;100946.38;;;-0.20;75.32
75852;BME280;64500;52.632;20.656;2022-12-20T01:41:56;100939.52;;;-0.17;75.45
75852;BME280;64500;52.632;20.656;2022-12-20T01:46:58;100930.48;;;-0.12;75.58
75852;BME280;64500;52.632;20.656;2022-12-20T01:49:41;100929.31;;;-0.09;75.61
75852;BME280;64500;52.632;20.656;2022-12-20T01:52:37;100926.45;;;-0.06;75.54
75852;BME280;64500;52.632;20.656;2022-12-20T01:55:19;100928.40;;;-0.05;75.45
75852;BME280;64500;52.632;20.656;2022-12-20T01:58:07;100927.38;;;-0.05;75.46
75852;BME280;64500;52.632;20.656;2022-12-20T02:00:41;100928.77;;;-0.04;75.64
75852;BME280;64500;52.632;20.656;2022-12-20T02:03:14;100926.88;;;-0.03;75.66
75852;BME280;64500;52.632;20.656;2022-12-20T02:05:48;100923.80;;;-0.03;75.80
75852;BME280;64500;52.632;20.656;2022-12-20T02:08:24;100921.70;;;-0.03;75.51
75852;BME280;64500;52.632;20.656;2022-12-20T02:14:07;100921.42;;;0.00;75.38
75852;BME280;64500;52.632;20.656;2022-12-20T02:17:13;100917.16;;;0.03;75.62
75852;BME280;64500;52.632;20.656;2022-12-20T02:23:15;100912.84;;;0.10;75.82
75852;BME280;64500;52.632;20.656;2022-12-20T02:26:36;100909.24;;;0.13;75.85
75852;BME280;64500;52.632;20.656;2022-12-20T02:32:35;100907.02;;;0.15;75.82
75852;BME280;64500;52.632;20.656;2022-12-20T02:35:17;100900.58;;;0.14;76.01
75852;BME280;64500;52.632;20.656;2022-12-20T02:37:53;100899.17;;;0.13;75.86
75852;BME280;64500;52.632;20.656;2022-12-20T02:40:27;100902.16;;;0.14;76.03
75852;BME280;64500;52.632;20.656;2022-12-20T02:43:09;100907.91;;;0.15;75.98
75852;BME280;64500;52.632;20.656;2022-12-20T02:46:05;100902.59;;;0.17;76.17
75852;BME280;64500;52.632;20.656;2022-12-20T02:48:36;100896.39;;;0.20;76.14
75852;BME280;64500;52.632;20.656;2022-12-20T02:51:09;100895.77;;;0.23;76.14
75852;BME280;64500;52.632;20.656;2022-12-20T02:53:42;100900.55;;;0.26;75.93
75852;BME280;64500;52.632;20.656;2022-12-20T02:56:31;100897.30;;;0.28;75.91
75852;BME280;64500;52.632;20.656;2022-12-20T02:59:15;100904.52;;;0.32;75.87
75852;BME280;64500;52.632;20.656;2022-12-20T03:01:53;100907.98;;;0.31;76.02
75852;BME280;64500;52.632;20.656;2022-12-20T03:04:28;100908.33;;;0.31;76.00
75852;BME280;64500;52.632;20.656;2022-12-20T03:07:07;100905.76;;;0.32;75.83
75852;BME280;64500;52.632;20.656;2022-12-20T03:09:39;100904.20;;;0.33;76.11
75852;BME280;64500;52.632;20.656;2022-12-20T03:12:12;100900.04;;;0.33;75.99
75852;BME280;64500;52.632;20.656;2022-12-20T03:14:46;100895.78;;;0.37;76.13
75852;BME280;64500;52.632;20.656;2022-12-20T03:17:16;100891.68;;;0.40;76.30
75852;BME280;64500;52.632;20.656;2022-12-20T03:19:50;100880.95;;;0.41;75.94
75852;BME280;64500;52.632;20.656;2022-12-20T03:22:25;100878.07;;;0.45;75.88
75852;BME280;64500;52.632;20.656;2022-12-20T03:24:58;100878.98;;;0.46;76.15
75852;BME280;64500;52.632;20.656;2022-12-20T03:27:35;100877.91;;;0.46;76.11
75852;BME280;64500;52.632;20.656;2022-12-20T03:30:05;100879.30;;;0.45;76.10
75852;BME280;64500;52.632;20.656;2022-12-20T03:32:37;100880.65;;;0.44;76.33
75852;BME280;64500;52.632;20.656;2022-12-20T03:35:10;100876.25;;;0.41;76.16
75852;BME280;64500;52.632;20.656;2022-12-20T03:37:40;100876.96;;;0.42;76.27
75852;BME280;64500;52.632;20.656;2022-12-20T03:40:16;100882.23;;;0.45;76.21
75852;BME280;64500;52.632;20.656;2022-12-20T03:42:45;100884.90;;;0.47;76.27
75852;BME280;64500;52.632;20.656;2022-12-20T03:45:20;100884.08;;;0.49;76.22
75852;BME280;64500;52.632;20.656;2022-12-20T03:47:52;100887.62;;;0.51;76.21
75852;BME280;64500;52.632;20.656;2022-12-20T03:50:21;100883.27;;;0.51;76.20
75852;BME280;64500;52.632;20.656;2022-12-20T03:52:51;100874.42;;;0.52;76.12
75852;BME280;64500;52.632;20.656;2022-12-20T03:55:23;100870.40;;;0.51;76.37
75852;BME280;64500;52.632;20.656;2022-12-20T03:57:53;100866.91;;;0.51;76.09
75852;BME280;64500;52.632;20.656;2022-12-20T04:00:25;100868.66;;;0.51;76.14
75852;BME280;64500;52.632;20.656;2022-12-20T04:02:57;100863.31;;;0.53;76.53
75852;BME280;64500;52.632;20.656;2022-12-20T04:05:32;100865.61;;;0.55;76.28
75852;BME280;64500;52.632;20.656;2022-12-20T04:08:05;100865.86;;;0.58;76.18
75852;BME280;64500;52.632;20.656;2022-12-20T04:10:39;100865.19;;;0.59;76.20
75852;BME280;64500;52.632;20.656;2022-12-20T04:13:29;100859.68;;;0.62;76.25
75852;BME280;64500;52.632;20.656;2022-12-20T04:16:01;100866.50;;;0.63;76.40
75852;BME280;64500;52.632;20.656;2022-12-20T04:18:34;100870.70;;;0.64;76.21
75852;BME280;64500;52.632;20.656;2022-12-20T04:21:08;100868.59;;;0.63;76.28
75852;BME280;64500;52.632;20.656;2022-12-20T04:23:42;100868.40;;;0.62;76.22
75852;BME280;64500;52.632;20.656;2022-12-20T04:26:19;100866.30;;;0.61;76.14
75852;BME280;64500;52.632;20.656;2022-12-20T04:28:46;100863.50;;;0.61;76.51
75852;BME280;64500;52.632;20.656;2022-12-20T04:31:22;100860.04;;;0.62;76.36
75852;BME280;64500;52.632;20.656;2022-12-20T04:33:51;100856.41;;;0.63;76.22
75852;BME280;64500;52.632;20.656;2022-12-20T04:36:26;100861.67;;;0.65;76.24
75852;BME280;64500;52.632;20.656;2022-12-20T04:38:55;100861.01;;;0.66;76.11
75852;BME280;64500;52.632;20.656;2022-12-20T04:41:28;100863.33;;;0.69;76.44
75852;BME280;64500;52.632;20.656;2022-12-20T04:43:57;100861.10;;;0.70;76.06
75852;BME280;64500;52.632;20.656;2022-12-20T04:46:29;100863.91;;;0.71;76.43
75852;BME280;64500;52.632;20.656;2022-12-20T04:49:05;100856.39;;;0.70;76.58
75852;BME280;64500;52.632;20.656;2022-12-20T04:51:36;100852.02;;;0.68;76.46
75852;BME280;64500;52.632;20.656;2022-12-20T04:54:10;100853.39;;;0.68;76.46
75852;BME280;64500;52.632;20.656;2022-12-20T04:56:50;100853.40;;;0.68;76.63
75852;BME280;64500;52.632;20.656;2022-12-20T04:59:19;100846.48;;;0.70;76.46
75852;BME280;64500;52.632;20.656;2022-12-20T05:01:48;100850.39;;;0.73;76.43
75852;BME280;64500;52.632;20.656;2022-12-20T05:04:21;100849.73;;;0.75;76.50
75852;BME280;64500;52.632;20.656;2022-12-20T05:06:50;100849.08;;;0.77;76.50
75852;BME280;64500;52.632;20.656;2022-12-20T05:09:21;100849.48;;;0.79;76.55
75852;BME280;64500;52.632;20.656;2022-12-20T05:11:54;100848.97;;;0.80;76.47
75852;BME280;64500;52.632;20.656;2022-12-20T05:14:27;100847.07;;;0.80;76.51
75852;BME280;64500;52.632;20.656;2022-12-20T05:17:01;100837.13;;;0.78;76.53
75852;BME280;64500;52.632;20.656;2022-12-20T05:19:29;100835.86;;;0.77;76.63
75852;BME280;64500;52.632;20.656;2022-12-20T05:22:02;100836.04;;;0.77;76.46
75852;BME280;64500;52.632;20.656;2022-12-20T05:24:53;100830.99;;;0.77;76.54
75852;BME280;64500;52.632;20.656;2022-12-20T05:27:44;100843.38;;;0.78;76.42
75852;BME280;64500;52.632;20.656;2022-12-20T05:30:15;100836.07;;;0.78;76.43
75852;BME280;64500;52.632;20.656;2022-12-20T05:32:43;100836.96;;;0.80;76.50
75852;BME280;64500;52.632;20.656;2022-12-20T05:35:16;100835.42;;;0.80;76.60
75852;BME280;64500;52.632;20.656;2022-12-20T05:37:52;100835.27;;;0.82;76.36
75852;BME280;64500;52.632;20.656;2022-12-20T05:40:26;100837.37;;;0.82;76.47
75852;BME280;64500;52.632;20.656;2022-12-20T05:42:56;100839.94;;;0.81;76.45
75852;BME280;64500;52.632;20.656;2022-12-20T05:45:30;100836.58;;;0.78;76.46
75852;BME280;64500;52.632;20.656;2022-12-20T05:48:05;100840.90;;;0.77;76.48
75852;BME280;64500;52.632;20.656;2022-12-20T05:50:35;100837.41;;;0.76;76.60
75852;BME280;64500;52.632;20.656;2022-12-20T05:53:07;100829.59;;;0.77;76.58
75852;BME280;64500;52.632;20.656;2022-12-20T05:55:48;100832.39;;;0.77;76.57
75852;BME280;64500;52.632;20.656;2022-12-20T05:58:24;100832.23;;;0.78;76.65
75852;BME280;64500;52.632;20.656;2022-12-20T06:00:52;100832.27;;;0.79;76.48
75852;BME280;64500;52.632;20.656;2022-12-20T06:03:28;100827.75;;;0.80;76.66
75852;BME280;64500;52.632;20.656;2022-12-20T06:05:57;100831.96;;;0.82;76.62
75852;BME280;64500;52.632;20.656;2022-12-20T06:08:30;100834.41;;;0.82;76.67
75852;BME280;64500;52.632;20.656;2022-12-20T06:11:01;100832.17;;;0.83;76.58
75852;BME280;64500;52.632;20.656;2022-12-20T06:13:33;100830.23;;;0.82;76.53
75852;BME280;64500;52.632;20.656;2022-12-20T06:16:01;100824.46;;;0.81;76.48
75852;BME280;64500;52.632;20.656;2022-12-20T06:18:36;100831.07;;;0.80;76.52
75852;BME280;64500;52.632;20.656;2022-12-20T06:21:09;100840.30;;;0.81;76.55
75852;BME280;64500;52.632;20.656;2022-12-20T06:23:43;100841.34;;;0.81;76.71
75852;BME280;64500;52.632;20.656;2022-12-20T06:26:15;100842.22;;;0.81;76.77
75852;BME280;64500;52.632;20.656;2022-12-20T06:28:50;100842.93;;;0.82;76.57
75852;BME280;64500;52.632;20.656;2022-12-20T06:31:20;100838.60;;;0.83;76.71
75852;BME280;64500;52.632;20.656;2022-12-20T06:33:53;100848.03;;;0.84;76.81
75852;BME280;64500;52.632;20.656;2022-12-20T06:36:28;100850.16;;;0.86;76.59
75852;BME280;64500;52.632;20.656;2022-12-20T06:38:57;100847.94;;;0.87;76.71
75852;BME280;64500;52.632;20.656;2022-12-20T06:41:24;100849.86;;;0.88;76.76
75852;BME280;64500;52.632;20.656;2022-12-20T06:43:58;100852.14;;;0.89;76.42
75852;BME280;64500;52.632;20.656;2022-12-20T06:46:27;100854.56;;;0.88;76.57
75852;BME280;64500;52.632;20.656;2022-12-20T06:49:00;100854.21;;;0.88;76.48
75852;BME280;64500;52.632;20.656;2022-12-20T06:51:31;100851.91;;;0.86;76.48
75852;BME280;64500;52.632;20.656;2022-12-20T06:54:03;100850.70;;;0.86;76.45
75852;BME280;64500;52.632;20.656;2022-12-20T06:56:33;100848.91;;;0.85;76.68
75852;BME280;64500;52.632;20.656;2022-12-20T06:59:07;100845.41;;;0.84;76.61
75852;BME280;64500;52.632;20.656;2022-12-20T07:01:41;100849.63;;;0.85;76.82
75852;BME280;64500;52.632;20.656;2022-12-20T07:04:15;100854.20;;;0.87;76.68
75852;BME280;64500;52.632;20.656;2022-12-20T07:06:51;100856.14;;;0.89;76.82
75852;BME280;64500;52.632;20.656;2022-12-20T07:09:28;100859.45;;;0.89;76.67
75852;BME280;64500;52.632;20.656;2022-12-20T07:11:56;100859.65;;;0.90;76.92
75852;BME280;64500;52.632;20.656;2022-12-20T07:14:30;100860.66;;;0.89;76.53
75852;BME280;64500;52.632;20.656;2022-12-20T07:17:02;100860.48;;;0.88;76.76
75852;BME280;64500;52.632;20.656;2022-12-20T07:19:35;100857.67;;;0.87;76.74
75852;BME280;64500;52.632;20.656;2022-12-20T07:22:04;100853.33;;;0.87;76.65
75852;BME280;64500;52.632;20.656;2022-12-20T07:24:36;100850.73;;;0.88;76.89
75852;BME280;64500;52.632;20.656;2022-12-20T07:27:11;100841.20;;;0.90;76.85
75852;BME280;64500;52.632;20.656;2022-12-20T07:29:46;100838.27;;;0.92;76.83
75852;BME280;64500;52.632;20.656;2022-12-20T07:32:16;100836.92;;;0.94;76.72
75852;BME280;64500;52.632;20.656;2022-12-20T07:34:51;100835.36;;;0.94;76.68
75852;BME280;64500;52.632;20.656;2022-12-20T07:37:24;100833.27;;;0.93;76.50
75852;BME280;64500;52.632;20.656;2022-12-20T07:39:55;100835.87;;;0.93;76.66
75852;BME280;64500;52.632;20.656;2022-12-20T07:42:28;100842.13;;;0.93;76.60
75852;BME280;64500;52.632;20.656;2022-12-20T07:45:02;100843.13;;;0.91;76.73
75852;BME280;64500;52.632;20.656;2022-12-20T07:47:36;100844.16;;;0.90;76.64
75852;BME280;64500;52.632;20.656;2022-12-20T07:50:08;100842.78;;;0.91;76.67
75852;BME280;64500;52.632;20.656;2022-12-20T07:52:36;100842.61;;;0.91;76.66
75852;BME280;64500;52.632;20.656;2022-12-20T07:55:15;100842.10;;;0.92;76.68
75852;BME280;64500;52.632;20.656;2022-12-20T07:57:53;100850.19;;;0.95;76.60
75852;BME280;64500;52.632;20.656;2022-12-20T08:00:32;100850.04;;;0.96;76.55
75852;BME280;64500;52.632;20.656;2022-12-20T08:05:46;100847.42;;;0.96;76.46
75852;BME280;64500;52.632;20.656;2022-12-20T08:08:19;100852.79;;;0.94;76.46
75852;BME280;64500;52.632;20.656;2022-12-20T08:10:53;100853.46;;;0.93;76.60
75852;BME280;64500;52.632;20.656;2022-12-20T08:13:30;100847.86;;;0.92;76.26
75852;BME280;64500;52.632;20.656;2022-12-20T08:15:59;100844.02;;;0.92;76.54
75852;BME280;64500;52.632;20.656;2022-12-20T08:18:31;100845.25;;;0.92;76.42
75852;BME280;64500;52.632;20.656;2022-12-20T08:20:59;100838.98;;;0.92;76.68
75852;BME280;64500;52.632;20.656;2022-12-20T08:23:35;100839.02;;;0.94;76.54
75852;BME280;64500;52.632;20.656;2022-12-20T08:26:05;100844.61;;;0.95;76.52
75852;BME280;64500;52.632;20.656;2022-12-20T08:28:37;100843.96;;;0.96;76.60
75852;BME280;64500;52.632;20.656;2022-12-20T08:31:12;100846.96;;;0.99;76.57
75852;BME280;64500;52.632;20.656;2022-12-20T08:33:43;100845.10;;;1.01;76.63
75852;BME280;64500;52.632;20.656;2022-12-20T08:36:15;100845.13;;;1.02;76.48
75852;BME280;64500;52.632;20.656;2022-12-20T08:38:45;100846.16;;;1.02;76.58
75852;BME280;64500;52.632;20.656;2022-12-20T08:41:18;100843.55;;;1.02;76.47
75852;BME280;64500;52.632;20.656;2022-12-20T08:43:53;100840.58;;;1.01;76.60
75852;BME280;64500;52.632;20.656;2022-12-20T08:46:21;100847.50;;;0.99;76.38
75852;BME280;64500;52.632;20.656;2022-12-20T08:48:52;100854.27;;;0.99;76.60
75852;BME280;64500;52.632;20.656;2022-12-20T08:51:23;100864.32;;;0.97;76.51
75852;BME280;64500;52.632;20.656;2022-12-20T08:53:53;100862.75;;;0.96;76.47
75852;BME280;64500;52.632;20.656;2022-12-20T08:56:22;100865.19;;;0.96;76.73
75852;BME280;64500;52.632;20.656;2022-12-20T08:58:54;100862.41;;;0.97;76.71
75852;BME280;64500;52.632;20.656;2022-12-20T09:01:23;100860.16;;;0.98;76.71
75852;BME280;64500;52.632;20.656;2022-12-20T09:03:58;100860.04;;;0.99;76.69
75852;BME280;64500;52.632;20.656;2022-12-20T09:06:33;100852.40;;;1.00;76.74
75852;BME280;64500;52.632;20.656;2022-12-20T09:09:08;100851.56;;;1.02;76.64
75852;BME280;64500;52.632;20.656;2022-12-20T09:11:36;100841.34;;;1.05;76.79
75852;BME280;64500;52.632;20.656;2022-12-20T09:14:11;100835.46;;;1.06;76.69
75852;BME280;64500;52.632;20.656;2022-12-20T09:16:46;100834.80;;;1.07;76.56
75852;BME280;64500;52.632;20.656;2022-12-20T09:19:22;100815.83;;;1.08;76.61
75852;BME280;64500;52.632;20.656;2022-12-20T09:21:50;100820.70;;;1.08;76.75
75852;BME280;64500;52.632;20.656;2022-12-20T09:24:24;100825.41;;;1.08;76.71
75852;BME280;64500;52.632;20.656;2022-12-20T09:26:54;100831.66;;;1.07;76.78
75852;BME280;64500;52.632;20.656;2022-12-20T09:29:29;100833.73;;;1.06;76.84
75852;BME280;64500;52.632;20.656;2022-12-20T09:32:05;100836.14;;;1.05;76.59
75852;BME280;64500;52.632;20.656;2022-12-20T09:34:37;100835.79;;;1.05;76.55
75852;BME280;64500;52.632;20.656;2022-12-20T09:37:07;100832.69;;;1.06;76.48
75852;BME280;64500;52.632;20.656;2022-12-20T09:39:40;100836.38;;;1.08;76.32
75852;BME280;64500;52.632;20.656;2022-12-20T09:42:15;100835.71;;;1.09;76.53
75852;BME280;64500;52.632;20.656;2022-12-20T09:44:44;100838.52;;;1.10;76.46
75852;BME280;64500;52.632;20.656;2022-12-20T09:47:20;100835.41;;;1.12;76.64
75852;BME280;64500;52.632;20.656;2022-12-20T09:49:55;100840.31;;;1.14;76.72
75852;BME280;64500;52.632;20.656;2022-12-20T09:55:52;100840.44;;;1.10;76.46
75852;BME280;64500;52.632;20.656;2022-12-20T10:01:35;100837.77;;;1.08;76.70
75852;BME280;64500;52.632;20.656;2022-12-20T10:04:21;100843.36;;;1.09;76.55
75852;BME280;64500;52.632;20.656;2022-12-20T10:16:46;100836.18;;;1.15;76.57
75852;BME280;64500;52.632;20.656;2022-12-20T10:19:49;100836.17;;;1.15;76.59
75852;BME280;64500;52.632;20.656;2022-12-20T10:22:49;100832.29;;;1.13;76.61
75852;BME280;64500;52.632;20.656;2022-12-20T10:25:26;100828.63;;;1.12;76.64
75852;BME280;64500;52.632;20.656;2022-12-20T10:28:12;100825.16;;;1.13;76.71
75852;BME280;64500;52.632;20.656;2022-12-20T10:30:48;100821.18;;;1.14;76.70
75852;BME280;64500;52.632;20.656;2022-12-20T10:33:23;100819.81;;;1.16;76.67
75852;BME280;64500;52.632;20.656;2022-12-20T10:35:51;100811.69;;;1.18;76.79
75852;BME280;64500;52.632;20.656;2022-12-20T10:38:25;100807.59;;;1.22;76.87
75852;BME280;64500;52.632;20.656;2022-12-20T10:41:18;100793.58;;;1.27;76.65
75852;BME280;64500;52.632;20.656;2022-12-20T10:43:59;100788.27;;;1.30;76.96
75852;BME280;64500;52.632;20.656;2022-12-20T10:46:42;100783.29;;;1.34;77.00
75852;BME280;64500;52.632;20.656;2022-12-20T10:49:32;100771.11;;;1.35;76.75
75852;BME280;64500;52.632;20.656;2022-12-20T10:54:41;100760.65;;;1.35;76.79
75852;BME280;64500;52.632;20.656;2022-12-20T10:57:19;100755.06;;;1.34;76.57
75852;BME280;64500;52.632;20.656;2022-12-20T11:00:04;100762.21;;;1.34;76.73
75852;BME280;64500;52.632;20.656;2022-12-20T11:02:40;100777.38;;;1.35;76.59
75852;BME280;64500;52.632;20.656;2022-12-20T11:07:55;100779.84;;;1.37;76.37
75852;BME280;64500;52.632;20.656;2022-12-20T11:10:28;100778.34;;;1.39;76.59
75852;BME280;64500;52.632;20.656;2022-12-20T11:13:02;100773.65;;;1.41;76.59
75852;BME280;64500;52.632;20.656;2022-12-20T11:15:33;100780.98;;;1.42;76.65
75852;BME280;64500;52.632;20.656;2022-12-20T11:18:15;100780.82;;;1.41;76.79
75852;BME280;64500;52.632;20.656;2022-12-20T11:21:02;100770.36;;;1.41;76.67
75852;BME280;64500;52.632;20.656;2022-12-20T11:23:44;100765.47;;;1.41;76.81
75852;BME280;64500;52.632;20.656;2022-12-20T11:29:28;100763.23;;;1.43;76.68
75852;BME280;64500;52.632;20.656;2022-12-20T11:33:11;100765.20;;;1.44;76.68
75852;BME280;64500;52.632;20.656;2022-12-20T11:41:17;100753.42;;;1.48;76.70
75852;BME280;64500;52.632;20.656;2022-12-20T11:49:56;100746.74;;;1.46;76.38
75852;BME280;64500;52.632;20.656;2022-12-20T11:52:49;100736.63;;;1.45;76.64
75852;BME280;64500;52.632;20.656;2022-12-20T11:55:32;100738.02;;;1.44;76.68
75852;BME280;64500;52.632;20.656;2022-12-20T12:00:42;100730.69;;;1.44;76.61
75852;BME280;64500;52.632;20.656;2022-12-20T12:03:38;100718.85;;;1.44;76.89
75852;BME280;64500;52.632;20.656;2022-12-20T12:06:28;100717.30;;;1.45;76.59
75852;BME280;64500;52.632;20.656;2022-12-20T12:09:13;100715.21;;;1.45;76.70
75852;BME280;64500;52.632;20.656;2022-12-20T12:11:56;100722.01;;;1.45;76.47
75852;BME280;64500;52.632;20.656;2022-12-20T12:20:40;100731.34;;;1.41;76.53
75852;BME280;64500;52.632;20.656;2022-12-20T12:23:27;100735.67;;;1.41;76.57
75852;BME280;64500;52.632;20.656;2022-12-20T12:26:21;100743.00;;;1.41;76.51
75852;BME280;64500;52.632;20.656;2022-12-20T12:29:01;100735.88;;;1.42;76.53
75852;BME280;64500;52.632;20.656;2022-12-20T12:31:44;100740.77;;;1.43;76.46
75852;BME280;64500;52.632;20.656;2022-12-20T12:43:59;100731.02;;;1.43;76.58
75852;BME280;64500;52.632;20.656;2022-12-20T12:46:31;100736.90;;;1.41;76.53
75852;BME280;64500;52.632;20.656;2022-12-20T12:49:14;100730.08;;;1.39;76.34
75852;BME280;64500;52.632;20.656;2022-12-20T12:51:54;100739.29;;;1.38;76.41
75852;BME280;64500;52.632;20.656;2022-12-20T12:57:17;100733.39;;;1.39;76.32
75852;BME280;64500;52.632;20.656;2022-12-20T12:59:49;100732.71;;;1.41;76.49
75852;BME280;64500;52.632;20.656;2022-12-20T13:02:32;100736.23;;;1.42;76.78
75852;BME280;64500;52.632;20.656;2022-12-20T13:07:46;100735.90;;;1.43;76.51
75852;BME280;64500;52.632;20.656;2022-12-20T13:12:58;100728.39;;;1.42;76.53
75852;BME280;64500;52.632;20.656;2022-12-20T13:18:20;100748.59;;;1.41;76.61
75852;BME280;64500;52.632;20.656;2022-12-20T13:21:31;100755.34;;;1.40;76.41
75852;BME280;64500;52.632;20.656;2022-12-20T13:27:36;100751.90;;;1.41;76.37
75852;BME280;64500;52.632;20.656;2022-12-20T13:35:30;100757.28;;;1.40;76.39
75852;BME280;64500;52.632;20.656;2022-12-20T13:43:44;100759.67;;;1.39;76.71
75852;BME280;64500;52.632;20.656;2022-12-20T13:49:26;100748.88;;;1.39;76.65
75852;BME280;64500;52.632;20.656;2022-12-20T13:54:49;100741.63;;;1.41;76.71
75852;BME280;64500;52.632;20.656;2022-12-20T13:57:50;100745.12;;;1.43;76.75
75852;BME280;64500;52.632;20.656;2022-12-20T14:00:28;100741.30;;;1.44;76.59
75852;BME280;64500;52.632;20.656;2022-12-20T14:02:56;100743.05;;;1.44;76.66
75852;BME280;64500;52.632;20.656;2022-12-20T14:05:33;100742.01;;;1.44;76.53
75852;BME280;64500;52.632;20.656;2022-12-20T14:08:21;100742.16;;;1.42;76.49
75852;BME280;64500;52.632;20.656;2022-12-20T14:11:07;100741.98;;;1.42;76.63
75852;BME280;64500;52.632;20.656;2022-12-20T14:13:38;100733.24;;;1.41;76.62
75852;BME280;64500;52.632;20.656;2022-12-20T14:16:17;100730.45;;;1.40;76.69
75852;BME280;64500;52.632;20.656;2022-12-20T14:19:05;100721.73;;;1.40;76.56
75852;BME280;64500;52.632;20.656;2022-12-20T14:21:41;100719.84;;;1.41;76.72
75852;BME280;64500;52.632;20.656;2022-12-20T14:24:21;100713.06;;;1.41;76.82
75852;BME280;64500;52.632;20.656;2022-12-20T14:26:56;100707.85;;;1.42;76.56
75852;BME280;64500;52.632;20.656;2022-12-20T14:29:32;100704.73;;;1.44;76.76
75852;BME280;64500;52.632;20.656;2022-12-20T14:32:01;100698.66;;;1.45;76.70
75852;BME280;64500;52.632;20.656;2022-12-20T14:34:35;100706.15;;;1.45;76.51
75852;BME280;64500;52.632;20.656;2022-12-20T14:37:29;100709.13;;;1.45;76.74
75852;BME280;64500;52.632;20.656;2022-12-20T14:40:02;100712.06;;;1.45;76.58
75852;BME280;64500;52.632;20.656;2022-12-20T14:42:44;100713.04;;;1.40;76.56
75852;BME280;64500;52.632;20.656;2022-12-20T14:48:15;100709.98;;;1.35;76.60
75852;BME280;64500;52.632;20.656;2022-12-20T14:50:51;100708.21;;;1.35;76.60
75852;BME280;64500;52.632;20.656;2022-12-20T14:53:25;100702.98;;;1.35;76.63
75852;BME280;64500;52.632;20.656;2022-12-20T14:55:56;100703.52;;;1.35;76.58
75852;BME280;64500;52.632;20.656;2022-12-20T14:58:31;100702.38;;;1.38;76.67
75852;BME280;64500;52.632;20.656;2022-12-20T15:01:23;100707.10;;;1.40;76.53
75852;BME280;64500;52.632;20.656;2022-12-20T15:03:56;100700.14;;;1.40;76.62
75852;BME280;64500;52.632;20.656;2022-12-20T15:06:49;100696.32;;;1.40;76.68
75852;BME280;64500;52.632;20.656;2022-12-20T15:09:26;100694.95;;;1.42;76.65
75852;BME280;64500;52.632;20.656;2022-12-20T15:12:01;100697.00;;;1.40;76.59
75852;BME280;64500;52.632;20.656;2022-12-20T15:14:36;100690.38;;;1.40;76.60